Skopelos — SYHL — position and weather

sailwx.info

Track history (hours):
 
Tides and Currents Weather Stations Pressure Air Temp Water Temp Dewpoint Dewpoint Depression Visibility Wind Speed Wind Dir Waves Ship Positions

Skopelos

Last reported at 2018-May-28 17:01 UTC. Time now 2018-Jun-19 08:02 UTC.
Position N 18°46' E 072°37'.
Warning: this ship's position is 21 days out of date.

Length 229 m; draft 12.5 m.

Type: Tanker. MMSI: 240031000.

Date/timePositionNaut miles runAvg speedWind from/ knotsBaromVisibWave heightAir tempDewpointWater temp
2018-May-28 17:01N 18°46' E 072°37'0 0.1
2018-May-28 16:55N 18°46' E 072°37'0 0.0
2018-May-26 19:37N 18°46' E 072°37'0 0.1
2018-May-26 19:25N 18°46' E 072°37'0 0.1
2018-May-26 18:55N 18°46' E 072°37'0 0.0
2018-May-26 16:13N 18°46' E 072°37'0 0.0
2018-May-26 15:55N 18°46' E 072°37'0 0.0
2018-May-26 15:25N 18°46' E 072°37'0 0.0
2018-May-26 14:37N 18°46' E 072°37'0 0.0
2018-May-26 14:19N 18°46' E 072°37'0 0.0
2018-May-26 13:55N 18°46' E 072°37'0 0.0
2018-May-26 13:25N 18°46' E 072°37'0 0.0
2018-May-25 14:55N 18°46' E 072°37'0 0.0
2018-May-25 02:01N 18°46' E 072°37'0 0.1
2018-May-25 01:55N 18°46' E 072°37'0 0.0
2018-May-25 01:25N 18°46' E 072°37'0 0.0
2018-May-25 00:55N 18°46' E 072°37'0 0.0
2018-May-25 00:25N 18°46' E 072°37'0 0.0
2018-May-24 17:31N 18°46' E 072°37'0 0.0
2018-May-24 17:19N 18°46' E 072°37'0 0.1
2018-May-24 16:37N 18°46' E 072°37'0 0.1
2018-May-24 16:13N 18°46' E 072°37'44 3.5
2018-May-24 03:47N 18°53' E 071°51'412.8
2018-May-24 03:29N 18°53' E 071°47'913.2
2018-May-24 02:46N 18°53' E 071°37'413.3
2018-May-24 02:30N 18°54' E 071°34'713.2
2018-May-24 02:00N 18°54' E 071°27'713.3
2018-May-24 01:30N 18°54' E 071°20'713.3
2018-May-24 00:59N 18°54' E 071°12'713.4
2018-May-24 00:26N 18°54' E 071°05'2613.5
2018-May-23 22:30N 18°49' E 070°37'813.1
2018-May-23 21:53N 18°46' E 070°29'611.8
2018-May-23 21:23N 18°46' E 070°23'513.1
2018-May-23 20:59N 18°45' E 070°18'612.9
2018-May-23 20:30N 18°43' E 070°12'1712.6
2018-May-23 19:11N 18°38' E 069°55'312.8
2018-May-23 18:54N 18°38' E 069°51'512.8
2018-May-23 18:29N 18°36' E 069°46'612.7
2018-May-23 18:00N 18°35' E 069°39'712.7
2018-May-23 17:27N 18°33' E 069°32'612.7
2018-May-23 16:59N 18°31' E 069°26'612.7
2018-May-23 16:29N 18°30' E 069°20'612.6
2018-May-23 16:00N 18°28' E 069°14'612.5
2018-May-23 15:30N 18°27' E 069°07'15713.0
2018-May-23 03:27N 17°46' E 066°28'713.8
2018-May-23 02:58N 17°45' E 066°21'1113.8
2018-May-23 02:11N 17°42' E 066°10'513.7
2018-May-23 01:47N 17°41' E 066°04'413.7
2018-May-23 01:28N 17°39' E 065°60'2710.8
2018-May-22 22:59N 17°32' E 065°33'713.4
2018-May-22 22:29N 17°31' E 065°26'613.3
2018-May-22 22:00N 17°29' E 065°19'1213.0
2018-May-22 21:06N 17°26' E 065°08'112.7
2018-May-22 20:59N 17°26' E 065°06'912.8
2018-May-22 20:16N 17°24' E 064°57'9412.8
2018-May-22 12:55N 16°60' E 063°21'3412.8
2018-May-22 10:17N 16°50' E 062°47'412.7
2018-May-22 09:57N 16°49' E 062°43'4012.7
2018-May-22 06:48N 16°39' E 062°03'512.5
2018-May-22 06:24N 16°38' E 061°58'512.4
2018-May-22 05:59N 16°37' E 061°52'6612.6
2018-May-22 00:42N 16°20' E 060°46'6912.8
2018-May-21 19:19N 16°02' E 059°36'  
Track history (hours):
 
Tides and Currents Weather Stations Pressure Air Temp Water Temp Dewpoint Dewpoint Depression Visibility Wind Speed Wind Dir Waves Ship Positions

Skopelos

Last reported at 2018-May-28 17:01 UTC. Time now 2018-Jun-19 08:02 UTC.
Position N 18°46' E 072°37'.
Warning: this ship's position is 21 days out of date.

Length 229 m; draft 12.5 m.

Type: Tanker. MMSI: 240031000.

Date/timePositionNaut miles runAvg speedWind from/ knotsBaromVisibWave heightAir tempDewpointWater temp
2018-May-28 17:01N 18°46' E 072°37'0 0.1
2018-May-28 16:55N 18°46' E 072°37'0 0.0
2018-May-26 19:37N 18°46' E 072°37'0 0.1
2018-May-26 19:25N 18°46' E 072°37'0 0.1
2018-May-26 18:55N 18°46' E 072°37'0 0.0
2018-May-26 16:13N 18°46' E 072°37'0 0.0
2018-May-26 15:55N 18°46' E 072°37'0 0.0
2018-May-26 15:25N 18°46' E 072°37'0 0.0
2018-May-26 14:37N 18°46' E 072°37'0 0.0
2018-May-26 14:19N 18°46' E 072°37'0 0.0
2018-May-26 13:55N 18°46' E 072°37'0 0.0
2018-May-26 13:25N 18°46' E 072°37'0 0.0
2018-May-25 14:55N 18°46' E 072°37'0 0.0
2018-May-25 02:01N 18°46' E 072°37'0 0.1
2018-May-25 01:55N 18°46' E 072°37'0 0.0
2018-May-25 01:25N 18°46' E 072°37'0 0.0
2018-May-25 00:55N 18°46' E 072°37'0 0.0
2018-May-25 00:25N 18°46' E 072°37'0 0.0
2018-May-24 17:31N 18°46' E 072°37'0 0.0
2018-May-24 17:19N 18°46' E 072°37'0 0.1
2018-May-24 16:37N 18°46' E 072°37'0 0.1
2018-May-24 16:13N 18°46' E 072°37'44 3.5
2018-May-24 03:47N 18°53' E 071°51'412.8
2018-May-24 03:29N 18°53' E 071°47'913.2
2018-May-24 02:46N 18°53' E 071°37'413.3
2018-May-24 02:30N 18°54' E 071°34'713.2
2018-May-24 02:00N 18°54' E 071°27'713.3
2018-May-24 01:30N 18°54' E 071°20'713.3
2018-May-24 00:59N 18°54' E 071°12'713.4
2018-May-24 00:26N 18°54' E 071°05'2613.5
2018-May-23 22:30N 18°49' E 070°37'813.1
2018-May-23 21:53N 18°46' E 070°29'611.8
2018-May-23 21:23N 18°46' E 070°23'513.1
2018-May-23 20:59N 18°45' E 070°18'612.9
2018-May-23 20:30N 18°43' E 070°12'1712.6
2018-May-23 19:11N 18°38' E 069°55'312.8
2018-May-23 18:54N 18°38' E 069°51'512.8
2018-May-23 18:29N 18°36' E 069°46'612.7
2018-May-23 18:00N 18°35' E 069°39'712.7
2018-May-23 17:27N 18°33' E 069°32'612.7
2018-May-23 16:59N 18°31' E 069°26'612.7
2018-May-23 16:29N 18°30' E 069°20'612.6
2018-May-23 16:00N 18°28' E 069°14'612.5
2018-May-23 15:30N 18°27' E 069°07'15713.0
2018-May-23 03:27N 17°46' E 066°28'713.8
2018-May-23 02:58N 17°45' E 066°21'1113.8
2018-May-23 02:11N 17°42' E 066°10'513.7
2018-May-23 01:47N 17°41' E 066°04'413.7
2018-May-23 01:28N 17°39' E 065°60'2710.8
2018-May-22 22:59N 17°32' E 065°33'713.4
2018-May-22 22:29N 17°31' E 065°26'613.3
2018-May-22 22:00N 17°29' E 065°19'1213.0
2018-May-22 21:06N 17°26' E 065°08'112.7
2018-May-22 20:59N 17°26' E 065°06'912.8
2018-May-22 20:16N 17°24' E 064°57'9412.8
2018-May-22 12:55N 16°60' E 063°21'3412.8
2018-May-22 10:17N 16°50' E 062°47'412.7
2018-May-22 09:57N 16°49' E 062°43'4012.7
2018-May-22 06:48N 16°39' E 062°03'512.5
2018-May-22 06:24N 16°38' E 061°58'512.4
2018-May-22 05:59N 16°37' E 061°52'6612.6
2018-May-22 00:42N 16°20' E 060°46'6912.8
2018-May-21 19:19N 16°02' E 059°36'  

Dump ship's entire track history